createdAt,value
2022-08-28T00:01:39.963Z,95.49
2022-08-28T00:04:42.536Z,95.10
2022-08-28T00:07:47.869Z,96.15
2022-08-28T00:10:50.074Z,95.11
2022-08-28T00:13:51.878Z,94.43
2022-08-28T00:16:54.704Z,94.17
2022-08-28T00:19:56.656Z,93.67
2022-08-28T00:22:59.575Z,94.00
2022-08-28T00:26:02.606Z,93.95
2022-08-28T00:29:06.858Z,93.68
2022-08-28T00:32:08.904Z,94.02
2022-08-28T00:35:12.516Z,93.89
2022-08-28T00:38:15.440Z,93.89
2022-08-28T00:41:17.661Z,93.52
2022-08-28T00:44:29.035Z,93.79
2022-08-28T00:47:30.899Z,94.05
2022-08-28T00:50:54.598Z,93.89
2022-08-28T00:54:07.371Z,94.20
2022-08-28T00:57:15.349Z,94.30
2022-08-28T01:00:25.445Z,94.69
2022-08-28T01:03:27.525Z,94.85
2022-08-28T01:06:29.239Z,94.91
2022-08-28T01:09:32.850Z,95.10
2022-08-28T01:12:35.807Z,95.22
2022-08-28T01:15:39.095Z,95.06
2022-08-28T01:18:43.197Z,96.03
2022-08-28T01:22:04.809Z,95.94
2022-08-28T01:25:11.507Z,96.07
2022-08-28T01:28:14.501Z,95.67
2022-08-28T01:31:17.270Z,95.66
2022-08-28T01:34:19.146Z,95.70
2022-08-28T01:37:21.124Z,96.58
2022-08-28T01:40:32.646Z,96.54
2022-08-28T01:43:34.562Z,96.38
2022-08-28T01:46:36.570Z,96.40
2022-08-28T01:49:38.369Z,97.93
2022-08-28T01:52:40.405Z,97.79
2022-08-28T01:55:43.532Z,97.69
2022-08-28T01:58:48.160Z,97.58
2022-08-28T02:01:50.040Z,98.25
2022-08-28T02:04:53.310Z,98.39
2022-08-28T02:07:56.062Z,97.74
2022-08-28T02:10:58.028Z,98.54
2022-08-28T02:14:01.503Z,98.87
2022-08-28T02:17:03.325Z,98.37
2022-08-28T02:20:06.028Z,98.95
2022-08-28T02:23:07.786Z,99.06
2022-08-28T02:26:11.193Z,98.52
2022-08-28T02:29:13.551Z,98.34
2022-08-28T02:32:15.474Z,98.48
2022-08-28T02:35:19.649Z,98.08
2022-08-28T02:38:22.702Z,98.15
2022-08-28T02:41:24.694Z,98.68
2022-08-28T02:44:26.428Z,99.73
2022-08-28T02:47:28.317Z,100.00
2022-08-28T02:50:31.181Z,99.91
2022-08-28T02:53:33.035Z,99.75
2022-08-28T02:56:34.745Z,99.84
2022-08-28T02:59:38.001Z,99.86
2022-08-28T03:02:41.708Z,99.67
2022-08-28T03:05:43.659Z,99.35
2022-08-28T03:08:45.436Z,99.90
2022-08-28T03:11:47.256Z,100.00
2022-08-28T03:14:49.074Z,100.00
2022-08-28T03:17:51.174Z,100.00
2022-08-28T03:20:54.105Z,100.00
2022-08-28T03:23:55.842Z,100.00
2022-08-28T03:26:58.408Z,100.00
2022-08-28T03:30:00.256Z,100.00
2022-08-28T03:33:02.120Z,100.00
2022-08-28T03:36:04.886Z,100.00
2022-08-28T03:39:06.974Z,100.00
2022-08-28T03:42:09.127Z,100.00
2022-08-28T03:45:14.714Z,100.00
2022-08-28T03:48:16.814Z,100.00
2022-08-28T03:51:29.559Z,100.00
2022-08-28T03:54:33.516Z,100.00
2022-08-28T03:57:36.915Z,100.00
2022-08-28T04:00:40.415Z,100.00
2022-08-28T04:03:42.170Z,100.00
2022-08-28T04:06:43.938Z,100.00
2022-08-28T04:09:46.384Z,100.00
2022-08-28T04:12:48.262Z,100.00
2022-08-28T04:16:02.673Z,100.00
2022-08-28T04:19:08.340Z,100.00
2022-08-28T04:22:10.057Z,100.00
2022-08-28T04:25:11.821Z,100.00
2022-08-28T04:28:13.772Z,100.00
2022-08-28T04:31:17.044Z,100.00
2022-08-28T04:34:19.630Z,100.00
2022-08-28T04:37:21.765Z,100.00
2022-08-28T04:40:28.115Z,100.00
2022-08-28T04:43:29.906Z,100.00
2022-08-28T04:46:31.835Z,100.00
2022-08-28T04:49:33.735Z,100.00
2022-08-28T04:52:35.487Z,100.00
2022-08-28T04:55:54.903Z,100.00
2022-08-28T04:58:57.402Z,100.00
2022-08-28T05:01:59.195Z,100.00
2022-08-28T05:05:00.963Z,100.00
2022-08-28T05:08:02.880Z,100.00
2022-08-28T05:11:32.655Z,100.00
2022-08-28T05:14:36.745Z,100.00
2022-08-28T05:17:38.557Z,100.00
2022-08-28T05:20:44.718Z,100.00
2022-08-28T05:23:47.558Z,100.00
2022-08-28T05:26:49.409Z,100.00
2022-08-28T05:29:51.190Z,100.00
2022-08-28T05:32:53.663Z,100.00
2022-08-28T05:35:55.468Z,100.00
2022-08-28T05:38:58.535Z,100.00
2022-08-28T05:42:00.320Z,100.00
2022-08-28T05:45:02.212Z,100.00
2022-08-28T05:48:04.168Z,100.00
2022-08-28T05:51:11.603Z,100.00
2022-08-28T05:54:14.997Z,100.00
2022-08-28T05:57:16.674Z,100.00
2022-08-28T06:00:18.494Z,100.00
2022-08-28T06:03:20.718Z,100.00
2022-08-28T06:06:24.821Z,100.00
2022-08-28T06:09:30.068Z,100.00
2022-08-28T06:12:32.097Z,100.00
2022-08-28T06:15:34.146Z,100.00
2022-08-28T06:18:35.941Z,100.00
2022-08-28T06:21:39.045Z,100.00
2022-08-28T06:24:40.874Z,100.00
2022-08-28T06:27:48.053Z,100.00
2022-08-28T06:31:17.875Z,100.00
2022-08-28T06:34:14.141Z,100.00
2022-08-28T06:37:15.900Z,100.00
2022-08-28T06:40:17.664Z,100.00
2022-08-28T06:43:22.701Z,100.00
2022-08-28T06:46:25.586Z,100.00
2022-08-28T06:49:27.479Z,100.00
2022-08-28T06:52:30.348Z,100.00
2022-08-28T06:55:32.168Z,100.00
2022-08-28T06:58:43.428Z,99.94
2022-08-28T07:01:55.565Z,98.60
2022-08-28T07:04:57.523Z,99.28
2022-08-28T07:07:59.367Z,98.84
2022-08-28T07:11:28.789Z,97.56
2022-08-28T07:14:30.586Z,96.23
2022-08-28T07:17:32.783Z,92.45
2022-08-28T07:20:34.608Z,92.70
2022-08-28T07:23:38.114Z,91.17
2022-08-28T07:26:42.457Z,90.04
2022-08-28T07:29:44.368Z,89.48
2022-08-28T07:32:49.753Z,87.69
2022-08-28T07:35:51.543Z,85.10
2022-08-28T07:38:55.705Z,83.58
2022-08-28T07:41:57.378Z,84.26
2022-08-28T07:44:59.442Z,85.23
2022-08-28T07:48:05.809Z,84.73
2022-08-28T07:51:10.463Z,83.71
2022-08-28T07:54:17.589Z,83.69
2022-08-28T07:57:21.260Z,84.23
2022-08-28T08:00:24.655Z,84.32
2022-08-28T08:03:26.749Z,85.18
2022-08-28T08:06:33.130Z,84.64
2022-08-28T08:09:39.013Z,86.01
2022-08-28T08:12:42.796Z,85.79
2022-08-28T08:15:44.807Z,85.98
2022-08-28T08:18:48.787Z,84.65
2022-08-28T08:21:53.236Z,84.83
2022-08-28T08:24:57.484Z,84.25
2022-08-28T08:27:59.688Z,84.79
2022-08-28T08:31:09.477Z,83.39
2022-08-28T08:34:11.564Z,80.44
2022-08-28T08:37:14.437Z,80.02
2022-08-28T08:40:19.610Z,78.60
2022-08-28T08:43:23.259Z,77.48
2022-08-28T08:46:34.135Z,77.83
2022-08-28T08:49:41.403Z,76.86
2022-08-28T08:53:03.514Z,76.82
2022-08-28T08:56:06.419Z,74.00
2022-08-28T08:59:16.851Z,75.30
2022-08-28T09:02:31.289Z,74.37
2022-08-28T09:05:48.513Z,73.09
2022-08-28T09:08:59.155Z,73.16
2022-08-28T09:12:05.755Z,72.39
2022-08-28T09:15:18.480Z,73.10
2022-08-28T09:18:34.681Z,71.83
2022-08-28T09:21:42.031Z,70.93
2022-08-28T09:24:45.373Z,71.97
2022-08-28T09:27:47.953Z,72.76
2022-08-28T09:31:06.810Z,72.03
2022-08-28T09:34:25.303Z,71.58
2022-08-28T09:37:29.991Z,70.51
2022-08-28T09:40:51.751Z,70.07
2022-08-28T09:43:53.935Z,67.51
2022-08-28T09:46:55.758Z,68.69
2022-08-28T09:50:16.353Z,68.23
2022-08-28T09:53:22.102Z,64.73
2022-08-28T09:56:41.956Z,66.30
2022-08-28T09:59:43.793Z,65.98
2022-08-28T10:03:10.571Z,66.66
2022-08-28T10:06:38.771Z,66.18
2022-08-28T10:10:17.335Z,64.33
2022-08-28T10:13:30.961Z,63.27
2022-08-28T10:16:47.210Z,63.28
2022-08-28T10:20:13.237Z,60.33
2022-08-28T10:23:30.690Z,60.86
2022-08-28T10:26:59.688Z,58.59
2022-08-28T10:30:13.337Z,58.01
2022-08-28T10:33:52.350Z,59.40
2022-08-28T10:37:24.206Z,58.94
2022-08-28T10:40:34.877Z,59.36
2022-08-28T10:43:48.104Z,60.18
2022-08-28T10:46:55.664Z,60.03
2022-08-28T10:50:05.230Z,60.60
2022-08-28T10:53:14.590Z,60.49
2022-08-28T10:56:25.609Z,60.73
2022-08-28T10:59:31.994Z,62.39
2022-08-28T11:02:37.464Z,61.88
2022-08-28T11:06:11.858Z,62.59
2022-08-28T11:09:29.948Z,60.76
2022-08-28T11:12:41.793Z,60.19
2022-08-28T11:15:52.643Z,59.23
2022-08-28T11:19:16.007Z,57.30
2022-08-28T11:22:23.450Z,54.82
2022-08-28T11:25:35.676Z,56.07
2022-08-28T11:28:47.511Z,58.95
2022-08-28T11:32:29.534Z,60.00
2022-08-28T11:35:42.068Z,60.95
2022-08-28T11:38:44.031Z,60.56
2022-08-28T11:42:10.918Z,60.26
2022-08-28T11:45:40.018Z,59.87
2022-08-28T11:48:53.951Z,60.82
2022-08-28T11:52:20.599Z,60.85
2022-08-28T11:55:34.141Z,61.04
2022-08-28T11:59:10.641Z,61.62
2022-08-28T12:02:40.749Z,61.08
2022-08-28T12:05:45.894Z,58.75
2022-08-28T12:08:47.828Z,57.36
2022-08-28T12:11:51.623Z,56.54
2022-08-28T12:14:56.346Z,57.91
2022-08-28T12:18:03.014Z,55.99
2022-08-28T12:21:08.712Z,54.50
2022-08-28T12:24:35.147Z,54.91
2022-08-28T12:27:39.125Z,54.16
2022-08-28T12:31:06.941Z,53.38
2022-08-28T12:34:31.762Z,53.93
2022-08-28T12:37:52.636Z,51.74
2022-08-28T12:40:58.043Z,51.73
2022-08-28T12:44:00.635Z,51.07
2022-08-28T12:47:02.445Z,52.13
2022-08-28T12:50:22.680Z,51.88
2022-08-28T12:53:24.976Z,50.63
2022-08-28T12:56:34.059Z,50.79
2022-08-28T12:59:42.183Z,52.62
2022-08-28T13:02:46.499Z,51.91
2022-08-28T13:06:00.256Z,51.37
2022-08-28T13:09:14.833Z,51.15
2022-08-28T13:12:22.789Z,51.10
2022-08-28T13:16:02.263Z,51.10
2022-08-28T13:19:04.192Z,50.51
2022-08-28T13:22:27.939Z,49.48
2022-08-28T13:25:38.770Z,51.70
2022-08-28T13:28:42.872Z,51.01
2022-08-28T13:31:45.280Z,50.72
2022-08-28T13:35:25.558Z,49.45
2022-08-28T13:38:28.319Z,48.27
2022-08-28T13:41:33.068Z,47.61
2022-08-28T13:44:54.536Z,47.15
2022-08-28T13:47:56.337Z,46.09
2022-08-28T13:51:14.269Z,44.09
2022-08-28T13:54:25.224Z,45.77
2022-08-28T13:57:29.655Z,47.60
2022-08-28T14:00:36.818Z,47.71
2022-08-28T14:03:42.143Z,48.70
2022-08-28T14:06:45.391Z,48.33
2022-08-28T14:09:47.130Z,49.72
2022-08-28T14:12:50.271Z,46.82
2022-08-28T14:15:52.447Z,45.89
2022-08-28T14:18:54.750Z,46.99
2022-08-28T14:21:57.622Z,45.52
2022-08-28T14:24:59.373Z,45.05
2022-08-28T14:28:01.327Z,46.20
2022-08-28T14:31:08.942Z,45.06
2022-08-28T14:34:17.637Z,45.94
2022-08-28T14:37:20.111Z,45.01
2022-08-28T14:40:22.358Z,45.32
2022-08-28T14:43:24.272Z,44.10
2022-08-28T14:46:33.814Z,45.11
2022-08-28T14:49:36.026Z,45.02
2022-08-28T14:52:39.002Z,44.87
2022-08-28T14:55:50.605Z,44.80
2022-08-28T14:58:52.430Z,45.26
2022-08-28T15:02:02.202Z,45.32
2022-08-28T15:05:04.311Z,45.99
2022-08-28T15:08:14.014Z,44.46
2022-08-28T15:11:18.964Z,43.37
2022-08-28T15:14:20.703Z,43.28
2022-08-28T15:17:23.660Z,44.04
2022-08-28T15:20:45.364Z,44.42
2022-08-28T15:23:50.573Z,44.47
2022-08-28T15:26:52.594Z,44.05
2022-08-28T15:29:56.346Z,44.09
2022-08-28T15:33:28.979Z,43.83
2022-08-28T15:36:30.907Z,43.49
2022-08-28T15:39:56.217Z,42.96
2022-08-28T15:42:58.796Z,42.66
2022-08-28T15:46:21.067Z,44.52
2022-08-28T15:49:25.125Z,43.78
2022-08-28T15:52:27.118Z,44.61
2022-08-28T15:55:30.404Z,45.37
2022-08-28T15:58:32.117Z,44.61
2022-08-28T16:01:35.868Z,44.35
2022-08-28T16:04:41.297Z,44.08
2022-08-28T16:07:48.372Z,43.96
2022-08-28T16:10:51.649Z,43.82
2022-08-28T16:13:54.193Z,43.43
2022-08-28T16:16:56.262Z,44.24
2022-08-28T16:19:58.061Z,44.05
2022-08-28T16:22:59.880Z,44.56
2022-08-28T16:26:05.541Z,44.64
2022-08-28T16:29:07.818Z,45.37
2022-08-28T16:32:09.656Z,45.43
2022-08-28T16:35:15.056Z,45.12
2022-08-28T16:38:17.683Z,45.28
2022-08-28T16:41:24.963Z,45.15
2022-08-28T16:44:30.188Z,45.50
2022-08-28T16:47:33.622Z,45.45
2022-08-28T16:50:35.638Z,45.31
2022-08-28T16:53:39.033Z,45.27
2022-08-28T16:56:40.816Z,46.16
2022-08-28T16:59:43.440Z,45.87
2022-08-28T17:02:45.594Z,46.13
2022-08-28T17:05:47.462Z,46.68
2022-08-28T17:08:52.291Z,46.73
2022-08-28T17:11:59.024Z,47.37
2022-08-28T17:15:01.563Z,47.89
2022-08-28T17:18:03.276Z,47.76
2022-08-28T17:21:24.084Z,48.36
2022-08-28T17:24:25.985Z,48.56
2022-08-28T17:27:28.267Z,48.79
2022-08-28T17:30:30.370Z,49.04
2022-08-28T17:33:32.777Z,49.86
2022-08-28T17:36:36.787Z,49.75
2022-08-28T17:39:38.661Z,49.65
2022-08-28T17:42:40.652Z,50.13
2022-08-28T17:45:42.595Z,50.83
2022-08-28T17:48:47.943Z,50.27
2022-08-28T17:51:57.790Z,51.00
2022-08-28T17:55:00.201Z,51.77
2022-08-28T17:58:02.734Z,51.71
2022-08-28T18:01:05.076Z,53.24
2022-08-28T18:04:06.849Z,53.67
2022-08-28T18:07:09.095Z,54.20
2022-08-28T18:10:11.798Z,53.74
2022-08-28T18:13:15.029Z,53.84
2022-08-28T18:16:17.232Z,54.65
2022-08-28T18:19:19.800Z,55.30
2022-08-28T18:22:21.486Z,56.02
2022-08-28T18:25:41.614Z,56.75
2022-08-28T18:28:45.128Z,58.16
2022-08-28T18:31:46.845Z,59.20
2022-08-28T18:34:49.008Z,59.51
2022-08-28T18:37:51.278Z,59.76
2022-08-28T18:40:53.574Z,59.59
2022-08-28T18:43:56.298Z,59.62
2022-08-28T18:47:00.883Z,59.24
2022-08-28T18:50:05.042Z,59.33
2022-08-28T18:53:06.937Z,59.48
2022-08-28T18:56:08.809Z,60.43
2022-08-28T18:59:12.692Z,62.07
2022-08-28T19:02:15.975Z,61.64
2022-08-28T19:05:17.903Z,62.51
2022-08-28T19:08:19.614Z,63.48
2022-08-28T19:11:21.458Z,63.33
2022-08-28T19:14:23.700Z,63.14
2022-08-28T19:17:26.733Z,62.45
2022-08-28T19:20:30.008Z,62.56
2022-08-28T19:23:32.813Z,61.98
2022-08-28T19:26:34.969Z,61.62
2022-08-28T19:29:38.368Z,61.59
2022-08-28T19:32:41.561Z,61.53
2022-08-28T19:35:43.943Z,61.85
2022-08-28T19:38:45.766Z,61.71
2022-08-28T19:41:47.467Z,61.12
2022-08-28T19:44:59.598Z,60.42
2022-08-28T19:48:01.839Z,60.56
2022-08-28T19:51:14.355Z,60.78
2022-08-28T19:54:19.786Z,60.24
2022-08-28T19:57:21.400Z,59.86
2022-08-28T20:00:29.519Z,59.29
2022-08-28T20:03:31.484Z,59.31
2022-08-28T20:06:35.061Z,59.11
2022-08-28T20:09:37.034Z,58.41
2022-08-28T20:12:39.943Z,58.36
2022-08-28T20:15:50.073Z,58.12
2022-08-28T20:18:52.116Z,58.50
2022-08-28T20:21:54.649Z,58.58
2022-08-28T20:24:56.341Z,58.39
2022-08-28T20:28:01.555Z,58.66
2022-08-28T20:31:08.746Z,58.91
2022-08-28T20:34:12.268Z,61.01
2022-08-28T20:37:14.210Z,62.17
2022-08-28T20:40:19.916Z,61.54
2022-08-28T20:43:21.501Z,63.40
2022-08-28T20:46:23.584Z,64.45
2022-08-28T20:49:25.407Z,65.03
2022-08-28T20:52:27.176Z,65.63
2022-08-28T20:55:28.915Z,65.11
2022-08-28T20:58:30.680Z,64.28
2022-08-28T21:01:33.838Z,65.74
2022-08-28T21:04:36.910Z,65.58
2022-08-28T21:07:40.416Z,65.26
2022-08-28T21:10:43.316Z,66.52
2022-08-28T21:13:45.217Z,66.97
2022-08-28T21:16:47.029Z,67.16
2022-08-28T21:19:52.019Z,66.45
2022-08-28T21:22:54.432Z,68.55
2022-08-28T21:25:56.128Z,69.38
2022-08-28T21:28:57.887Z,68.86
2022-08-28T21:32:00.013Z,69.44
2022-08-28T21:35:04.357Z,66.26
2022-08-28T21:38:06.064Z,68.38
2022-08-28T21:41:12.354Z,68.63
2022-08-28T21:44:14.281Z,68.87
2022-08-28T21:47:16.079Z,68.55
2022-08-28T21:50:18.340Z,68.62
2022-08-28T21:53:20.069Z,68.62
2022-08-28T21:56:24.840Z,70.27
2022-08-28T21:59:26.680Z,70.95
2022-08-28T22:02:34.407Z,71.26
2022-08-28T22:05:36.250Z,70.91
2022-08-28T22:08:39.301Z,71.03
2022-08-28T22:11:41.381Z,71.12
2022-08-28T22:14:43.673Z,71.41
2022-08-28T22:17:45.405Z,70.66
2022-08-28T22:21:06.295Z,71.48
2022-08-28T22:24:09.014Z,71.12
2022-08-28T22:27:13.472Z,69.89
2022-08-28T22:30:15.262Z,70.18
2022-08-28T22:33:16.917Z,70.05
2022-08-28T22:36:20.006Z,71.44
2022-08-28T22:39:21.755Z,72.49
2022-08-28T22:42:23.611Z,72.78
2022-08-28T22:45:25.730Z,73.01
2022-08-28T22:48:27.472Z,73.86
2022-08-28T22:51:34.458Z,73.91
2022-08-28T22:54:36.324Z,74.23
2022-08-28T22:57:38.138Z,73.66
2022-08-28T23:00:41.178Z,74.38
2022-08-28T23:03:43.413Z,75.44
2022-08-28T23:06:45.381Z,74.53
2022-08-28T23:09:47.504Z,73.10
2022-08-28T23:12:49.943Z,74.96
2022-08-28T23:15:51.765Z,75.07
2022-08-28T23:19:08.658Z,75.70
2022-08-28T23:22:11.280Z,75.19
2022-08-28T23:25:15.994Z,76.36
2022-08-28T23:28:18.918Z,76.87
2022-08-28T23:31:20.994Z,76.79
2022-08-28T23:34:23.572Z,76.57
2022-08-28T23:37:26.026Z,76.68
2022-08-28T23:40:28.137Z,77.90
2022-08-28T23:43:32.479Z,75.45
2022-08-28T23:46:34.383Z,76.31
2022-08-28T23:49:41.668Z,75.81
2022-08-28T23:52:45.269Z,75.13
2022-08-28T23:55:48.626Z,75.41
2022-08-28T23:58:53.221Z,75.32
